sensor_id;sensor_type;location;lat;lon;timestamp;pressure;altitude;pressure_sealevel;temperature;humidity
48848;BME280;36611;51.638;5.784;2023-01-28T00:01:26;102795.06;;;8.11;53.57
48848;BME280;36611;51.638;5.784;2023-01-28T00:03:53;102794.19;;;8.10;53.53
48848;BME280;36611;51.638;5.784;2023-01-28T00:06:20;102790.72;;;8.07;53.53
48848;BME280;36611;51.638;5.784;2023-01-28T00:08:47;102801.47;;;8.05;53.49
48848;BME280;36611;51.638;5.784;2023-01-28T00:11:13;102793.44;;;8.05;53.60
48848;BME280;36611;51.638;5.784;2023-01-28T00:13:40;102796.91;;;8.09;53.65
48848;BME280;36611;51.638;5.784;2023-01-28T00:16:08;102802.16;;;8.12;53.68
48848;BME280;36611;51.638;5.784;2023-01-28T00:18:36;102809.22;;;8.14;53.51
48848;BME280;36611;51.638;5.784;2023-01-28T00:21:06;102803.09;;;8.11;53.59
48848;BME280;36611;51.638;5.784;2023-01-28T00:23:35;102801.31;;;8.10;53.60
48848;BME280;36611;51.638;5.784;2023-01-28T00:26:06;102807.66;;;8.07;53.39
48848;BME280;36611;51.638;5.784;2023-01-28T00:28:33;102794.31;;;8.06;53.45
48848;BME280;36611;51.638;5.784;2023-01-28T00:31:29;102800.63;;;8.03;53.40
48848;BME280;36611;51.638;5.784;2023-01-28T00:33:56;102797.91;;;8.05;53.46
48848;BME280;36611;51.638;5.784;2023-01-28T00:36:25;102802.38;;;8.04;53.31
48848;BME280;36611;51.638;5.784;2023-01-28T00:38:54;102805.06;;;8.04;53.44
48848;BME280;36611;51.638;5.784;2023-01-28T00:41:23;102806.94;;;8.01;53.32
48848;BME280;36611;51.638;5.784;2023-01-28T00:43:51;102811.56;;;7.95;53.30
48848;BME280;36611;51.638;5.784;2023-01-28T00:46:19;102812.47;;;7.94;53.22
48848;BME280;36611;51.638;5.784;2023-01-28T00:48:47;102816.13;;;7.92;53.31
48848;BME280;36611;51.638;5.784;2023-01-28T00:51:16;102818.84;;;7.90;53.33
48848;BME280;36611;51.638;5.784;2023-01-28T00:53:43;102822.47;;;7.88;53.12
48848;BME280;36611;51.638;5.784;2023-01-28T00:56:15;102813.63;;;7.86;53.18
48848;BME280;36611;51.638;5.784;2023-01-28T00:58:43;102829.63;;;7.87;53.21
48848;BME280;36611;51.638;5.784;2023-01-28T01:01:14;102830.56;;;7.86;53.15
48848;BME280;36611;51.638;5.784;2023-01-28T01:03:43;102819.00;;;7.84;53.20
48848;BME280;36611;51.638;5.784;2023-01-28T01:06:12;102824.41;;;7.83;53.24
48848;BME280;36611;51.638;5.784;2023-01-28T01:08:40;102814.63;;;7.82;53.19
48848;BME280;36611;51.638;5.784;2023-01-28T01:11:10;102820.84;;;7.82;53.27
48848;BME280;36611;51.638;5.784;2023-01-28T01:13:37;102812.00;;;7.80;53.13
48848;BME280;36611;51.638;5.784;2023-01-28T01:16:09;102805.81;;;7.78;53.04
48848;BME280;36611;51.638;5.784;2023-01-28T01:18:37;102808.63;;;7.74;52.98
48848;BME280;36611;51.638;5.784;2023-01-28T01:21:12;102820.28;;;7.71;52.97
48848;BME280;36611;51.638;5.784;2023-01-28T01:23:39;102820.28;;;7.71;52.84
48848;BME280;36611;51.638;5.784;2023-01-28T01:26:07;102822.06;;;7.71;52.97
48848;BME280;36611;51.638;5.784;2023-01-28T01:28:33;102820.31;;;7.70;53.13
48848;BME280;36611;51.638;5.784;2023-01-28T01:31:03;102817.69;;;7.68;52.81
48848;BME280;36611;51.638;5.784;2023-01-28T01:33:32;102820.41;;;7.67;52.90
48848;BME280;36611;51.638;5.784;2023-01-28T01:35:59;102814.19;;;7.66;52.96
48848;BME280;36611;51.638;5.784;2023-01-28T01:38:26;102812.50;;;7.62;52.79
48848;BME280;36611;51.638;5.784;2023-01-28T01:40:58;102819.69;;;7.60;52.79
48848;BME280;36611;51.638;5.784;2023-01-28T01:46:16;102824.16;;;7.59;52.73
48848;BME280;36611;51.638;5.784;2023-01-28T01:48:45;102827.75;;;7.58;52.93
48848;BME280;36611;51.638;5.784;2023-01-28T01:51:16;102834.00;;;7.59;52.81
48848;BME280;36611;51.638;5.784;2023-01-28T01:53:45;102831.31;;;7.59;52.65
48848;BME280;36611;51.638;5.784;2023-01-28T01:56:16;102829.47;;;7.61;52.73
48848;BME280;36611;51.638;5.784;2023-01-28T01:58:46;102832.16;;;7.61;52.74
48848;BME280;36611;51.638;5.784;2023-01-28T02:01:19;102821.50;;;7.59;52.60
48848;BME280;36611;51.638;5.784;2023-01-28T02:03:49;102830.47;;;7.57;52.77
48848;BME280;36611;51.638;5.784;2023-01-28T02:06:19;102821.63;;;7.55;52.70
48848;BME280;36611;51.638;5.784;2023-01-28T02:08:46;102823.47;;;7.53;52.70
48848;BME280;36611;51.638;5.784;2023-01-28T02:11:13;102826.16;;;7.51;52.43
48848;BME280;36611;51.638;5.784;2023-01-28T02:13:47;102822.63;;;7.51;52.70
48848;BME280;36611;51.638;5.784;2023-01-28T02:16:15;102837.75;;;7.52;52.56
48848;BME280;36611;51.638;5.784;2023-01-28T02:18:43;102836.00;;;7.51;52.43
48848;BME280;36611;51.638;5.784;2023-01-28T02:24:15;102834.28;;;7.48;52.37
48848;BME280;36611;51.638;5.784;2023-01-28T02:27:26;102829.88;;;7.46;52.52
48848;BME280;36611;51.638;5.784;2023-01-28T02:30:20;102828.09;;;7.46;52.44
48848;BME280;36611;51.638;5.784;2023-01-28T02:38:01;102821.91;;;7.44;52.40
48848;BME280;36611;51.638;5.784;2023-01-28T02:40:30;102821.91;;;7.44;52.50
48848;BME280;36611;51.638;5.784;2023-01-28T02:42:59;102825.47;;;7.45;52.40
48848;BME280;36611;51.638;5.784;2023-01-28T02:45:31;102826.34;;;7.45;52.44
48848;BME280;36611;51.638;5.784;2023-01-28T02:48:21;102825.38;;;7.48;52.34
48848;BME280;36611;51.638;5.784;2023-01-28T02:51:09;102822.69;;;7.48;52.57
48848;BME280;36611;51.638;5.784;2023-01-28T02:53:56;102829.75;;;7.50;52.41
48848;BME280;36611;51.638;5.784;2023-01-28T02:59:02;102827.09;;;7.50;52.52
48848;BME280;36611;51.638;5.784;2023-01-28T03:04:47;102826.38;;;7.44;52.35
48848;BME280;36611;51.638;5.784;2023-01-28T03:07:17;102829.06;;;7.44;52.55
48848;BME280;36611;51.638;5.784;2023-01-28T03:09:46;102828.19;;;7.43;52.37
48848;BME280;36611;51.638;5.784;2023-01-28T03:12:24;102836.16;;;7.45;52.38
48848;BME280;36611;51.638;5.784;2023-01-28T03:15:22;102828.00;;;7.49;52.43
48848;BME280;36611;51.638;5.784;2023-01-28T03:18:12;102828.81;;;7.53;52.41
48848;BME280;36611;51.638;5.784;2023-01-28T03:21:12;102834.16;;;7.53;52.43
48848;BME280;36611;51.638;5.784;2023-01-28T03:24:20;102837.75;;;7.52;52.31
48848;BME280;36611;51.638;5.784;2023-01-28T03:27:15;102826.09;;;7.54;52.40
48848;BME280;36611;51.638;5.784;2023-01-28T03:30:22;102828.75;;;7.54;52.34
48848;BME280;36611;51.638;5.784;2023-01-28T03:33:20;102825.28;;;7.51;52.36
48848;BME280;36611;51.638;5.784;2023-01-28T03:36:07;102833.34;;;7.49;52.35
48848;BME280;36611;51.638;5.784;2023-01-28T03:38:53;102837.00;;;7.47;52.31
48848;BME280;36611;51.638;5.784;2023-01-28T03:41:22;102832.56;;;7.46;52.33
48848;BME280;36611;51.638;5.784;2023-01-28T03:43:51;102839.75;;;7.44;52.25
48848;BME280;36611;51.638;5.784;2023-01-28T03:46:19;102839.75;;;7.42;52.36
48848;BME280;36611;51.638;5.784;2023-01-28T03:48:45;102838.88;;;7.42;52.27
48848;BME280;36611;51.638;5.784;2023-01-28T03:51:13;102831.72;;;7.42;52.35
48848;BME280;36611;51.638;5.784;2023-01-28T03:53:40;102830.81;;;7.45;52.31
48848;BME280;36611;51.638;5.784;2023-01-28T03:56:08;102838.78;;;7.46;52.44
48848;BME280;36611;51.638;5.784;2023-01-28T03:58:38;102829.00;;;7.45;52.24
48848;BME280;36611;51.638;5.784;2023-01-28T04:01:22;102839.75;;;7.44;52.15
48848;BME280;36611;51.638;5.784;2023-01-28T04:03:50;102842.41;;;7.42;52.29
48848;BME280;36611;51.638;5.784;2023-01-28T04:06:22;102846.00;;;7.41;52.51
48848;BME280;36611;51.638;5.784;2023-01-28T04:08:55;102847.88;;;7.38;52.38
48848;BME280;36611;51.638;5.784;2023-01-28T04:11:30;102860.44;;;7.34;52.13
48848;BME280;36611;51.638;5.784;2023-01-28T04:14:00;102857.81;;;7.32;52.32
48848;BME280;36611;51.638;5.784;2023-01-28T04:16:37;102855.22;;;7.29;52.13
48848;BME280;36611;51.638;5.784;2023-01-28T04:19:05;102857.06;;;7.27;52.18
48848;BME280;36611;51.638;5.784;2023-01-28T04:21:34;102857.13;;;7.24;52.09
48848;BME280;36611;51.638;5.784;2023-01-28T04:24:03;102860.69;;;7.25;52.18
48848;BME280;36611;51.638;5.784;2023-01-28T04:26:30;102855.34;;;7.25;52.24
48848;BME280;36611;51.638;5.784;2023-01-28T04:29:01;102858.91;;;7.25;52.13
48848;BME280;36611;51.638;5.784;2023-01-28T04:31:29;102857.13;;;7.24;52.00
48848;BME280;36611;51.638;5.784;2023-01-28T04:34:15;102854.44;;;7.26;52.01
48848;BME280;36611;51.638;5.784;2023-01-28T04:37:01;102857.09;;;7.26;52.09
48848;BME280;36611;51.638;5.784;2023-01-28T04:39:42;102846.50;;;7.23;51.85
48848;BME280;36611;51.638;5.784;2023-01-28T04:42:28;102852.81;;;7.19;51.87
48848;BME280;36611;51.638;5.784;2023-01-28T04:45:09;102852.00;;;7.17;51.97
48848;BME280;36611;51.638;5.784;2023-01-28T04:47:56;102854.72;;;7.14;51.78
48848;BME280;36611;51.638;5.784;2023-01-28T04:50:36;102860.06;;;7.14;51.66
48848;BME280;36611;51.638;5.784;2023-01-28T04:53:13;102856.56;;;7.12;51.74
48848;BME280;36611;51.638;5.784;2023-01-28T04:56:00;102860.16;;;7.11;51.64
48848;BME280;36611;51.638;5.784;2023-01-28T04:58:30;102863.75;;;7.10;51.57
48848;BME280;36611;51.638;5.784;2023-01-28T05:01:01;102873.50;;;7.11;51.64
48848;BME280;36611;51.638;5.784;2023-01-28T05:03:28;102870.84;;;7.11;51.63
48848;BME280;36611;51.638;5.784;2023-01-28T05:05:57;102864.53;;;7.13;51.72
48848;BME280;36611;51.638;5.784;2023-01-28T05:08:38;102866.25;;;7.16;51.85
48848;BME280;36611;51.638;5.784;2023-01-28T05:11:05;102857.38;;;7.15;51.62
48848;BME280;36611;51.638;5.784;2023-01-28T05:13:32;102860.06;;;7.14;51.66
48848;BME280;36611;51.638;5.784;2023-01-28T05:15:59;102869.13;;;7.08;51.74
48848;BME280;36611;51.638;5.784;2023-01-28T05:18:25;102865.66;;;7.05;51.51
48848;BME280;36611;51.638;5.784;2023-01-28T05:21:03;102869.31;;;7.00;51.74
48848;BME280;36611;51.638;5.784;2023-01-28T05:23:32;102871.13;;;6.98;51.54
48848;BME280;36611;51.638;5.784;2023-01-28T05:25:59;102864.06;;;6.96;51.49
48848;BME280;36611;51.638;5.784;2023-01-28T05:28:26;102866.78;;;6.94;51.42
48848;BME280;36611;51.638;5.784;2023-01-28T05:30:53;102871.28;;;6.92;51.41
48848;BME280;36611;51.638;5.784;2023-01-28T05:33:19;102855.28;;;6.91;51.36
48848;BME280;36611;51.638;5.784;2023-01-28T05:35:46;102857.97;;;6.91;51.44
48848;BME280;36611;51.638;5.784;2023-01-28T05:38:18;102852.66;;;6.89;51.32
48848;BME280;36611;51.638;5.784;2023-01-28T05:40:46;102850.88;;;6.90;51.20
48848;BME280;36611;51.638;5.784;2023-01-28T05:43:13;102848.16;;;6.91;51.34
48848;BME280;36611;51.638;5.784;2023-01-28T05:45:50;102858.78;;;6.94;51.24
48848;BME280;36611;51.638;5.784;2023-01-28T05:48:25;102863.19;;;6.95;51.49
48848;BME280;36611;51.638;5.784;2023-01-28T05:51:10;102859.56;;;6.98;51.28
48848;BME280;36611;51.638;5.784;2023-01-28T05:53:40;102856.09;;;6.94;51.36
48848;BME280;36611;51.638;5.784;2023-01-28T05:56:07;102864.16;;;6.93;51.39
48848;BME280;36611;51.638;5.784;2023-01-28T05:58:35;102861.50;;;6.91;51.44
48848;BME280;36611;51.638;5.784;2023-01-28T06:01:02;102866.00;;;6.89;51.36
48848;BME280;36611;51.638;5.784;2023-01-28T06:03:44;102872.22;;;6.90;51.34
48848;BME280;36611;51.638;5.784;2023-01-28T06:06:11;102871.38;;;6.88;51.29
48848;BME280;36611;51.638;5.784;2023-01-28T06:08:37;102874.09;;;6.86;51.29
48848;BME280;36611;51.638;5.784;2023-01-28T06:11:04;102879.44;;;6.86;51.35
48848;BME280;36611;51.638;5.784;2023-01-28T06:13:32;102872.34;;;6.85;51.33
48848;BME280;36611;51.638;5.784;2023-01-28T06:16:19;102883.00;;;6.87;51.39
48848;BME280;36611;51.638;5.784;2023-01-28T06:19:07;102877.69;;;6.85;51.39
48848;BME280;36611;51.638;5.784;2023-01-28T06:21:34;102868.75;;;6.86;51.46
48848;BME280;36611;51.638;5.784;2023-01-28T06:24:01;102873.22;;;6.86;51.52
48848;BME280;36611;51.638;5.784;2023-01-28T06:26:29;102869.63;;;6.87;51.40
48848;BME280;36611;51.638;5.784;2023-01-28T06:28:55;102874.97;;;6.87;51.41
48848;BME280;36611;51.638;5.784;2023-01-28T06:31:22;102881.19;;;6.87;51.41
48848;BME280;36611;51.638;5.784;2023-01-28T06:33:48;102875.88;;;6.86;51.48
48848;BME280;36611;51.638;5.784;2023-01-28T06:36:15;102875.94;;;6.84;51.40
48848;BME280;36611;51.638;5.784;2023-01-28T06:38:42;102876.88;;;6.82;51.45
48848;BME280;36611;51.638;5.784;2023-01-28T06:41:08;102878.66;;;6.81;51.76
48848;BME280;36611;51.638;5.784;2023-01-28T06:43:35;102882.25;;;6.80;51.47
48848;BME280;36611;51.638;5.784;2023-01-28T06:46:02;102887.63;;;6.79;51.38
48848;BME280;36611;51.638;5.784;2023-01-28T06:48:29;102880.59;;;6.75;51.36
48848;BME280;36611;51.638;5.784;2023-01-28T06:50:55;102885.94;;;6.75;51.29
48848;BME280;36611;51.638;5.784;2023-01-28T06:53:22;102885.06;;;6.74;51.46
48848;BME280;36611;51.638;5.784;2023-01-28T06:55:49;102895.75;;;6.74;51.49
48848;BME280;36611;51.638;5.784;2023-01-28T06:58:16;102891.28;;;6.75;51.46
48848;BME280;36611;51.638;5.784;2023-01-28T07:00:42;102885.00;;;6.77;51.34
48848;BME280;36611;51.638;5.784;2023-01-28T07:03:09;102890.31;;;6.79;51.29
48848;BME280;36611;51.638;5.784;2023-01-28T07:05:36;102892.97;;;6.79;51.38
48848;BME280;36611;51.638;5.784;2023-01-28T07:08:02;102891.25;;;6.76;51.25
48848;BME280;36611;51.638;5.784;2023-01-28T07:10:29;102902.84;;;6.75;51.27
48848;BME280;36611;51.638;5.784;2023-01-28T07:12:56;102899.34;;;6.73;51.33
48848;BME280;36611;51.638;5.784;2023-01-28T07:15:22;102903.78;;;6.73;51.30
48848;BME280;36611;51.638;5.784;2023-01-28T07:17:49;102907.34;;;6.73;51.24
48848;BME280;36611;51.638;5.784;2023-01-28T07:20:16;102914.53;;;6.69;51.12
48848;BME280;36611;51.638;5.784;2023-01-28T07:22:44;102911.03;;;6.66;51.18
48848;BME280;36611;51.638;5.784;2023-01-28T07:25:11;102913.72;;;6.64;50.98
48848;BME280;36611;51.638;5.784;2023-01-28T07:27:39;102918.19;;;6.64;51.22
48848;BME280;36611;51.638;5.784;2023-01-28T07:30:06;102924.44;;;6.63;51.20
48848;BME280;36611;51.638;5.784;2023-01-28T07:32:33;102928.91;;;6.62;51.13
48848;BME280;36611;51.638;5.784;2023-01-28T07:34:59;102928.97;;;6.59;51.23
48848;BME280;36611;51.638;5.784;2023-01-28T07:37:26;102931.59;;;6.61;51.06
48848;BME280;36611;51.638;5.784;2023-01-28T07:39:52;102933.44;;;6.59;51.13
48848;BME280;36611;51.638;5.784;2023-01-28T07:42:19;102937.94;;;6.55;51.00
48848;BME280;36611;51.638;5.784;2023-01-28T07:44:46;102937.13;;;6.52;50.94
48848;BME280;36611;51.638;5.784;2023-01-28T07:47:12;102938.09;;;6.49;50.92
48848;BME280;36611;51.638;5.784;2023-01-28T07:49:39;102939.03;;;6.47;51.14
48848;BME280;36611;51.638;5.784;2023-01-28T07:52:07;102944.38;;;6.47;51.07
48848;BME280;36611;51.638;5.784;2023-01-28T07:54:38;102936.38;;;6.45;51.17
48848;BME280;36611;51.638;5.784;2023-01-28T07:57:08;102937.25;;;6.46;51.07
48848;BME280;36611;51.638;5.784;2023-01-28T07:59:35;102945.28;;;6.46;51.07
48848;BME280;36611;51.638;5.784;2023-01-28T08:02:02;102947.94;;;6.46;51.00
48848;BME280;36611;51.638;5.784;2023-01-28T08:04:28;102947.97;;;6.44;51.00
48848;BME280;36611;51.638;5.784;2023-01-28T08:06:56;102952.41;;;6.45;50.98
48848;BME280;36611;51.638;5.784;2023-01-28T08:09:22;102954.13;;;6.48;51.08
48848;BME280;36611;51.638;5.784;2023-01-28T08:11:54;102950.53;;;6.49;51.07
48848;BME280;36611;51.638;5.784;2023-01-28T08:14:21;102940.75;;;6.49;50.91
48848;BME280;36611;51.638;5.784;2023-01-28T08:16:47;102944.28;;;6.50;51.03
48848;BME280;36611;51.638;5.784;2023-01-28T08:19:14;102951.44;;;6.49;50.98
48848;BME280;36611;51.638;5.784;2023-01-28T08:21:41;102959.41;;;6.51;50.95
48848;BME280;36611;51.638;5.784;2023-01-28T08:24:08;102962.03;;;6.52;50.89
48848;BME280;36611;51.638;5.784;2023-01-28T08:26:35;102976.25;;;6.54;50.93
48848;BME280;36611;51.638;5.784;2023-01-28T08:29:01;102978.88;;;6.56;50.93
48848;BME280;36611;51.638;5.784;2023-01-28T08:31:29;102976.22;;;6.56;51.08
48848;BME280;36611;51.638;5.784;2023-01-28T08:34:05;102982.38;;;6.59;51.12
48848;BME280;36611;51.638;5.784;2023-01-28T08:36:36;102986.78;;;6.60;50.96
48848;BME280;36611;51.638;5.784;2023-01-28T08:39:03;102986.78;;;6.60;51.16
48848;BME280;36611;51.638;5.784;2023-01-28T08:41:31;102985.88;;;6.61;51.05
48848;BME280;36611;51.638;5.784;2023-01-28T08:43:57;102984.09;;;6.62;50.94
48848;BME280;36611;51.638;5.784;2023-01-28T08:46:25;102989.44;;;6.62;50.92
48848;BME280;36611;51.638;5.784;2023-01-28T08:48:52;102982.28;;;6.62;50.92
48848;BME280;36611;51.638;5.784;2023-01-28T08:51:18;102984.94;;;6.64;50.90
48848;BME280;36611;51.638;5.784;2023-01-28T08:53:45;102995.63;;;6.64;50.86
48848;BME280;36611;51.638;5.784;2023-01-28T08:56:12;102991.13;;;6.66;50.93
48848;BME280;36611;51.638;5.784;2023-01-28T08:58:39;102984.88;;;6.67;50.80
48848;BME280;36611;51.638;5.784;2023-01-28T09:01:07;102999.97;;;6.68;50.85
48848;BME280;36611;51.638;5.784;2023-01-28T09:03:33;103005.31;;;6.69;50.82
48848;BME280;36611;51.638;5.784;2023-01-28T09:06:03;103008.88;;;6.70;50.79
48848;BME280;36611;51.638;5.784;2023-01-28T09:08:30;103016.88;;;6.70;50.87
48848;BME280;36611;51.638;5.784;2023-01-28T09:10:57;103003.53;;;6.70;50.71
48848;BME280;36611;51.638;5.784;2023-01-28T09:13:24;103015.06;;;6.72;50.71
48848;BME280;36611;51.638;5.784;2023-01-28T09:15:51;103016.81;;;6.73;50.72
48848;BME280;36611;51.638;5.784;2023-01-28T09:18:17;103023.00;;;6.75;50.76
48848;BME280;36611;51.638;5.784;2023-01-28T09:20:44;103018.53;;;6.76;50.70
48848;BME280;36611;51.638;5.784;2023-01-28T09:23:11;103029.19;;;6.77;50.74
48848;BME280;36611;51.638;5.784;2023-01-28T09:25:38;103026.47;;;6.80;50.75
48848;BME280;36611;51.638;5.784;2023-01-28T09:28:05;103026.41;;;6.83;50.62
48848;BME280;36611;51.638;5.784;2023-01-28T09:30:32;103024.63;;;6.84;50.78
48848;BME280;36611;51.638;5.784;2023-01-28T09:33:03;103015.72;;;6.83;50.65
48848;BME280;36611;51.638;5.784;2023-01-28T09:35:29;103028.19;;;6.83;50.67
48848;BME280;36611;51.638;5.784;2023-01-28T09:37:57;103025.63;;;6.78;50.59
48848;BME280;36611;51.638;5.784;2023-01-28T09:40:50;103032.81;;;6.75;50.53
48848;BME280;36611;51.638;5.784;2023-01-28T09:46:10;103030.16;;;6.75;50.49
48848;BME280;36611;51.638;5.784;2023-01-28T09:48:59;103035.47;;;6.75;50.54
48848;BME280;36611;51.638;5.784;2023-01-28T09:51:29;103031.00;;;6.77;50.53
48848;BME280;36611;51.638;5.784;2023-01-28T09:54:01;103035.41;;;6.78;50.45
48848;BME280;36611;51.638;5.784;2023-01-28T09:56:38;103048.78;;;6.78;50.45
48848;BME280;36611;51.638;5.784;2023-01-28T09:59:19;103045.28;;;6.74;50.37
48848;BME280;36611;51.638;5.784;2023-01-28T10:01:53;103051.50;;;6.75;50.45
48848;BME280;36611;51.638;5.784;2023-01-28T10:09:58;103058.72;;;6.69;50.37
48848;BME280;36611;51.638;5.784;2023-01-28T10:15:49;103062.34;;;6.65;50.21
48848;BME280;36611;51.638;5.784;2023-01-28T10:18:33;103062.34;;;6.65;50.33
48848;BME280;36611;51.638;5.784;2023-01-28T10:21:09;103058.78;;;6.65;50.23
48848;BME280;36611;51.638;5.784;2023-01-28T10:26:21;103064.94;;;6.68;50.35
48848;BME280;36611;51.638;5.784;2023-01-28T10:28:54;103064.94;;;6.70;50.33
48848;BME280;36611;51.638;5.784;2023-01-28T10:31:29;103060.47;;;6.72;50.89
48848;BME280;36611;51.638;5.784;2023-01-28T10:33:57;103059.50;;;6.75;50.48
48848;BME280;36611;51.638;5.784;2023-01-28T10:36:24;103057.69;;;6.77;50.41
48848;BME280;36611;51.638;5.784;2023-01-28T10:38:50;103053.25;;;6.76;50.48
48848;BME280;36611;51.638;5.784;2023-01-28T10:41:20;103050.59;;;6.76;50.27
48848;BME280;36611;51.638;5.784;2023-01-28T10:43:48;103060.41;;;6.75;50.37
48848;BME280;36611;51.638;5.784;2023-01-28T10:46:27;103055.97;;;6.74;50.35
48848;BME280;36611;51.638;5.784;2023-01-28T10:49:12;103052.38;;;6.75;50.38
48848;BME280;36611;51.638;5.784;2023-01-28T10:51:41;103052.38;;;6.75;50.37
48848;BME280;36611;51.638;5.784;2023-01-28T10:54:18;103057.72;;;6.75;50.43
48848;BME280;36611;51.638;5.784;2023-01-28T10:56:47;103046.19;;;6.73;50.40
48848;BME280;36611;51.638;5.784;2023-01-28T11:01:57;103040.00;;;6.71;50.43
48848;BME280;36611;51.638;5.784;2023-01-28T11:04:27;103050.69;;;6.71;50.37
48848;BME280;36611;51.638;5.784;2023-01-28T11:07:02;103050.69;;;6.71;50.43
48848;BME280;36611;51.638;5.784;2023-01-28T11:09:37;103049.78;;;6.72;50.43
48848;BME280;36611;51.638;5.784;2023-01-28T11:12:11;103041.75;;;6.72;50.47
48848;BME280;36611;51.638;5.784;2023-01-28T11:14:48;103039.94;;;6.74;50.57
48848;BME280;36611;51.638;5.784;2023-01-28T11:17:15;103032.78;;;6.76;50.37
48848;BME280;36611;51.638;5.784;2023-01-28T11:19:43;103029.19;;;6.77;50.56
48848;BME280;36611;51.638;5.784;2023-01-28T11:24:47;103019.34;;;6.81;50.37
48848;BME280;36611;51.638;5.784;2023-01-28T11:27:27;103014.81;;;6.84;50.43
48848;BME280;36611;51.638;5.784;2023-01-28T11:29:56;103009.38;;;6.89;50.41
48848;BME280;36611;51.638;5.784;2023-01-28T11:32:25;103006.56;;;6.95;50.24
48848;BME280;36611;51.638;5.784;2023-01-28T11:34:54;103001.97;;;7.01;50.24
48848;BME280;36611;51.638;5.784;2023-01-28T11:37:24;103005.41;;;7.07;50.33
48848;BME280;36611;51.638;5.784;2023-01-28T11:42:29;102997.19;;;7.16;50.16
48848;BME280;36611;51.638;5.784;2023-01-28T11:44:56;102999.78;;;7.19;50.13
48848;BME280;36611;51.638;5.784;2023-01-28T11:47:50;102998.00;;;7.19;50.07
48848;BME280;36611;51.638;5.784;2023-01-28T11:55:48;102970.88;;;7.36;49.78
48848;BME280;36611;51.638;5.784;2023-01-28T11:58:40;102954.78;;;7.39;49.85
48848;BME280;36611;51.638;5.784;2023-01-28T12:01:35;102945.78;;;7.43;49.77
48848;BME280;36611;51.638;5.784;2023-01-28T12:09:15;102904.75;;;7.46;49.66
48848;BME280;36611;51.638;5.784;2023-01-28T12:18:03;102912.56;;;7.53;49.50
48848;BME280;36611;51.638;5.784;2023-01-28T12:20:40;102917.84;;;7.56;49.45
48848;BME280;36611;51.638;5.784;2023-01-28T12:26:34;102920.53;;;7.55;49.32
48848;BME280;36611;51.638;5.784;2023-01-28T12:42:36;102947.44;;;8.17;49.17
48848;BME280;36611;51.638;5.784;2023-01-28T12:45:21;102938.25;;;8.27;49.06
48848;BME280;36611;51.638;5.784;2023-01-28T12:47:54;102939.78;;;8.37;48.96
48848;BME280;36611;51.638;5.784;2023-01-28T12:50:34;102950.28;;;8.45;49.03
48848;BME280;36611;51.638;5.784;2023-01-28T12:53:12;102950.22;;;8.46;48.72
48848;BME280;36611;51.638;5.784;2023-01-28T12:55:45;102947.50;;;8.48;48.63
48848;BME280;36611;51.638;5.784;2023-01-28T13:01:06;102951.00;;;8.50;48.46
48848;BME280;36611;51.638;5.784;2023-01-28T13:06:45;102950.09;;;8.51;48.16
48848;BME280;36611;51.638;5.784;2023-01-28T13:09:19;102950.00;;;8.54;48.21
48848;BME280;36611;51.638;5.784;2023-01-28T13:11:50;102949.97;;;8.55;48.09
48848;BME280;36611;51.638;5.784;2023-01-28T13:14:19;102939.28;;;8.54;48.08
48848;BME280;36611;51.638;5.784;2023-01-28T13:16:49;102942.97;;;8.50;48.17
48848;BME280;36611;51.638;5.784;2023-01-28T13:21:45;102940.47;;;8.44;47.91
48848;BME280;36611;51.638;5.784;2023-01-28T13:31:46;102925.16;;;8.49;47.73
48848;BME280;36611;51.638;5.784;2023-01-28T13:34:38;102927.56;;;8.58;47.83
48848;BME280;36611;51.638;5.784;2023-01-28T13:37:27;102921.09;;;8.65;47.67
48848;BME280;36611;51.638;5.784;2023-01-28T13:40:01;102916.47;;;8.70;47.71
48848;BME280;36611;51.638;5.784;2023-01-28T13:42:29;102911.78;;;8.78;47.80
48848;BME280;36611;51.638;5.784;2023-01-28T13:45:18;102901.75;;;8.85;47.63
48848;BME280;36611;51.638;5.784;2023-01-28T13:47:49;102893.50;;;8.91;47.81
48848;BME280;36611;51.638;5.784;2023-01-28T13:50:24;102891.75;;;8.90;47.45
48848;BME280;36611;51.638;5.784;2023-01-28T13:53:01;102889.03;;;8.91;47.33
48848;BME280;36611;51.638;5.784;2023-01-28T13:55:35;102881.81;;;8.95;47.47
48848;BME280;36611;51.638;5.784;2023-01-28T13:58:37;102866.41;;;9.02;47.26
48848;BME280;36611;51.638;5.784;2023-01-28T14:09:55;102836.41;;;9.17;47.32
48848;BME280;36611;51.638;5.784;2023-01-28T14:17:51;102866.09;;;9.11;47.00
48848;BME280;36611;51.638;5.784;2023-01-28T14:22:58;102887.75;;;9.05;46.77
48848;BME280;36611;51.638;5.784;2023-01-28T14:25:34;102890.53;;;9.02;46.80
48848;BME280;36611;51.638;5.784;2023-01-28T14:28:05;102892.31;;;9.01;46.89
48848;BME280;36611;51.638;5.784;2023-01-28T14:31:01;102892.44;;;8.98;46.94
48848;BME280;36611;51.638;5.784;2023-01-28T14:33:30;102897.84;;;8.97;46.75
48848;BME280;36611;51.638;5.784;2023-01-28T14:35:58;102886.34;;;8.91;46.88
48848;BME280;36611;51.638;5.784;2023-01-28T14:38:24;102887.28;;;8.90;46.88
48848;BME280;36611;51.638;5.784;2023-01-28T14:40:51;102895.31;;;8.90;46.69
48848;BME280;36611;51.638;5.784;2023-01-28T14:43:24;102898.00;;;8.90;46.64
48848;BME280;36611;51.638;5.784;2023-01-28T14:54:09;102906.38;;;8.80;46.61
48848;BME280;36611;51.638;5.784;2023-01-28T14:57:07;102911.88;;;8.75;46.57
48848;BME280;36611;51.638;5.784;2023-01-28T14:59:52;102908.34;;;8.73;46.56
48848;BME280;36611;51.638;5.784;2023-01-28T15:02:27;102918.25;;;8.71;47.01
48848;BME280;36611;51.638;5.784;2023-01-28T15:05:06;102911.19;;;8.69;46.38
48848;BME280;36611;51.638;5.784;2023-01-28T15:07:33;102908.53;;;8.67;46.69
48848;BME280;36611;51.638;5.784;2023-01-28T15:10:00;102901.44;;;8.66;46.97
48848;BME280;36611;51.638;5.784;2023-01-28T15:12:28;102905.03;;;8.65;46.84
48848;BME280;36611;51.638;5.784;2023-01-28T15:14:55;102894.31;;;8.65;46.79
48848;BME280;36611;51.638;5.784;2023-01-28T15:17:26;102899.78;;;8.62;47.00
48848;BME280;36611;51.638;5.784;2023-01-28T15:19:54;102898.94;;;8.60;46.87